FAD1223 OERK-OEDF
Flight info
| Callsign | FAD1223 |
|---|---|
| Flight time | 0h 40m |
| Altitude | 29000 |
| Route | ALTAV1E ALTAV H976 MUSRI L604 UMENA UMENA2J |
| Aircraft | A320/M-SDE3FGHIRWY/LB1 |
Departure
| Time | 2026-04-26 22:05 |
|---|---|
| Airport | King Khalid International Airport (OERK) |
Arrival
| Time | 2026-04-26 22:45 |
|---|---|
| Airport | King Fahd International Airport (OEDF) |
| Time | Latitude | Longitude | Altitude | Speed | Heading |
|---|---|---|---|---|---|
| 2026-04-26 20:37 | 24.96699 | 46.70043 | 2038 ft | 0 kts | 241° |
| 2026-04-26 21:51 | 24.96704 | 46.70053 | 2039 ft | 4 kts | 242° |
| 2026-04-26 21:51 | 24.96716 | 46.70079 | 2037 ft | 4 kts | 245° |
| 2026-04-26 21:52 | 24.96727 | 46.70106 | 2035 ft | 4 kts | 253° |
| 2026-04-26 21:52 | 24.96731 | 46.70135 | 2031 ft | 4 kts | 283° |
| 2026-04-26 21:52 | 24.96724 | 46.70150 | 2032 ft | 0 kts | 330° |
| 2026-04-26 21:55 | 24.96728 | 46.70147 | 2036 ft | 4 kts | 330° |
| 2026-04-26 21:55 | 24.96762 | 46.70126 | 2032 ft | 5 kts | 330° |
| 2026-04-26 21:56 | 24.96791 | 46.70107 | 2029 ft | 4 kts | 330° |
| 2026-04-26 21:56 | 24.96814 | 46.70093 | 2029 ft | 3 kts | 330° |
| 2026-04-26 21:58 | 24.96825 | 46.70086 | 2034 ft | 6 kts | 330° |
| 2026-04-26 21:58 | 24.96868 | 46.70079 | 2031 ft | 7 kts | 4° |
| 2026-04-26 21:59 | 24.96913 | 46.70116 | 2036 ft | 8 kts | 52° |
| 2026-04-26 21:59 | 24.96932 | 46.70154 | 2034 ft | 6 kts | 72° |
| 2026-04-26 21:59 | 24.96944 | 46.70182 | 2032 ft | 0 kts | 60° |
| 2026-04-26 22:00 | 24.96945 | 46.70184 | 2029 ft | 1 kts | 60° |
| 2026-04-26 22:00 | 24.96956 | 46.70206 | 2037 ft | 5 kts | 60° |
| 2026-04-26 22:00 | 24.96983 | 46.70253 | 2029 ft | 9 kts | 52° |
| 2026-04-26 22:00 | 24.97048 | 46.70262 | 2034 ft | 12 kts | 328° |
| 2026-04-26 22:01 | 24.97130 | 46.70209 | 2031 ft | 16 kts | 330° |
| 2026-04-26 22:01 | 24.97237 | 46.70142 | 2036 ft | 20 kts | 330° |
| 2026-04-26 22:01 | 24.97340 | 46.70076 | 2028 ft | 11 kts | 330° |
| 2026-04-26 22:01 | 24.97411 | 46.70031 | 2035 ft | 13 kts | 330° |
| 2026-04-26 22:02 | 24.97497 | 46.69979 | 2035 ft | 13 kts | 338° |
| 2026-04-26 22:02 | 24.97549 | 46.69987 | 2032 ft | 12 kts | 40° |
| 2026-04-26 22:02 | 24.97595 | 46.70068 | 2033 ft | 1 kts | 59° |
| 2026-04-26 22:02 | 24.97604 | 46.70084 | 2033 ft | 4 kts | 59° |
| 2026-04-26 22:03 | 24.97623 | 46.70129 | 2030 ft | 8 kts | 76° |
| 2026-04-26 22:03 | 24.97617 | 46.70208 | 2028 ft | 12 kts | 101° |
| 2026-04-26 22:03 | 24.97559 | 46.70281 | 2033 ft | 11 kts | 149° |
| 2026-04-26 22:03 | 24.97551 | 46.70286 | 2036 ft | 0 kts | 149° |
| 2026-04-26 22:04 | 24.97549 | 46.70288 | 2033 ft | 2 kts | 149° |
| 2026-04-26 22:04 | 24.97408 | 46.70378 | 2031 ft | 56 kts | 149° |
| 2026-04-26 22:04 | 24.96840 | 46.70739 | 2029 ft | 136 kts | 150° |
| 2026-04-26 22:04 | 24.95832 | 46.71390 | 2070 ft | 195 kts | 152° |
| 2026-04-26 22:05 | 24.94570 | 46.72128 | 2834 ft | 206 kts | 151° |
| 2026-04-26 22:05 | 24.93348 | 46.72924 | 3949 ft | 204 kts | 141° |
| 2026-04-26 22:05 | 24.92550 | 46.74207 | 4937 ft | 213 kts | 112° |
| 2026-04-26 22:05 | 24.92374 | 46.75948 | 5290 ft | 245 kts | 95° |
| 2026-04-26 22:06 | 24.92155 | 46.77810 | 5580 ft | 251 kts | 109° |
| 2026-04-26 22:06 | 24.91612 | 46.79645 | 5867 ft | 253 kts | 114° |
| 2026-04-26 22:06 | 24.91289 | 46.81605 | 6147 ft | 276 kts | 90° |
| 2026-04-26 22:06 | 24.91699 | 46.83726 | 6441 ft | 290 kts | 74° |
| 2026-04-26 22:07 | 24.92482 | 46.85791 | 6731 ft | 294 kts | 67° |
| 2026-04-26 22:07 | 24.93386 | 46.87825 | 7042 ft | 296 kts | 66° |
| 2026-04-26 22:07 | 24.94296 | 46.89882 | 7517 ft | 299 kts | 66° |
| 2026-04-26 22:07 | 24.94886 | 46.91286 | 7842 ft | 316 kts | 68° |
| 2026-04-26 22:08 | 24.96121 | 46.94434 | 8489 ft | 331 kts | 69° |
| 2026-04-26 22:08 | 24.96969 | 46.96734 | 8979 ft | 334 kts | 69° |
| 2026-04-26 22:08 | 24.97858 | 46.99240 | 9488 ft | 368 kts | 69° |
| 2026-04-26 22:08 | 24.98783 | 47.01885 | 9971 ft | 357 kts | 69° |
| 2026-04-26 22:09 | 24.99805 | 47.04239 | 10418 ft | 327 kts | 54° |
| 2026-04-26 22:09 | 25.01370 | 47.05995 | 10921 ft | 319 kts | 32° |
| 2026-04-26 22:09 | 25.03366 | 47.07021 | 11520 ft | 321 kts | 11° |
| 2026-04-26 22:09 | 25.05615 | 47.07203 | 12136 ft | 329 kts | 349° |
| 2026-04-26 22:10 | 25.07847 | 47.06529 | 12774 ft | 339 kts | 336° |
| 2026-04-26 22:10 | 25.10108 | 47.05635 | 13399 ft | 351 kts | 336° |
| 2026-04-26 22:10 | 25.12433 | 47.04827 | 14010 ft | 358 kts | 344° |
| 2026-04-26 22:10 | 25.14973 | 47.04556 | 14593 ft | 367 kts | 358° |
| 2026-04-26 22:11 | 25.17489 | 47.04947 | 15180 ft | 375 kts | 12° |
| 2026-04-26 22:11 | 25.19953 | 47.05973 | 15777 ft | 381 kts | 20° |
| 2026-04-26 22:11 | 25.22395 | 47.07150 | 16391 ft | 384 kts | 20° |
| 2026-04-26 22:11 | 25.24861 | 47.08330 | 17018 ft | 387 kts | 20° |
| 2026-04-26 22:12 | 25.27348 | 47.09517 | 17657 ft | 391 kts | 19° |
| 2026-04-26 22:12 | 25.29856 | 47.10712 | 18303 ft | 394 kts | 19° |
| 2026-04-26 22:12 | 25.32382 | 47.11917 | 18869 ft | 398 kts | 19° |
| 2026-04-26 22:12 | 25.34941 | 47.13137 | 19434 ft | 403 kts | 19° |
| 2026-04-26 22:13 | 25.37525 | 47.14390 | 20047 ft | 407 kts | 19° |
| 2026-04-26 22:13 | 25.40126 | 47.15675 | 20648 ft | 412 kts | 19° |
| 2026-04-26 22:13 | 25.42757 | 47.16987 | 21263 ft | 416 kts | 19° |
| 2026-04-26 22:13 | 25.45414 | 47.18315 | 21894 ft | 420 kts | 19° |
| 2026-04-26 22:14 | 25.48082 | 47.19650 | 22518 ft | 423 kts | 19° |
| 2026-04-26 22:14 | 25.50768 | 47.21012 | 23186 ft | 425 kts | 19° |
| 2026-04-26 22:14 | 25.53463 | 47.22394 | 23795 ft | 427 kts | 19° |
| 2026-04-26 22:14 | 25.56164 | 47.23787 | 24354 ft | 428 kts | 19° |
| 2026-04-26 22:15 | 25.58868 | 47.25179 | 24919 ft | 428 kts | 19° |
| 2026-04-26 22:15 | 25.61540 | 47.26548 | 25487 ft | 427 kts | 18° |
| 2026-04-26 22:15 | 25.64234 | 47.27928 | 26097 ft | 426 kts | 18° |
| 2026-04-26 22:15 | 25.66919 | 47.29304 | 26709 ft | 424 kts | 18° |
| 2026-04-26 22:16 | 25.69589 | 47.30672 | 27313 ft | 421 kts | 18° |
| 2026-04-26 22:16 | 25.72233 | 47.32029 | 27941 ft | 418 kts | 18° |
| 2026-04-26 22:16 | 25.74845 | 47.33455 | 28586 ft | 419 kts | 23° |
| 2026-04-26 22:16 | 25.77376 | 47.35131 | 28901 ft | 428 kts | 25° |
| 2026-04-26 22:17 | 25.79956 | 47.36859 | 28976 ft | 440 kts | 25° |
| 2026-04-26 22:17 | 25.82615 | 47.38642 | 28981 ft | 453 kts | 25° |
| 2026-04-26 22:17 | 25.87154 | 47.41700 | 28973 ft | 461 kts | 25° |
| 2026-04-26 22:18 | 25.92653 | 47.45428 | 28976 ft | 462 kts | 25° |
| 2026-04-26 22:18 | 25.98156 | 47.49147 | 28967 ft | 463 kts | 25° |
| 2026-04-26 22:19 | 26.03659 | 47.52868 | 28967 ft | 463 kts | 25° |
| 2026-04-26 22:19 | 26.09164 | 47.56597 | 28964 ft | 463 kts | 25° |
| 2026-04-26 22:20 | 26.14675 | 47.60331 | 28964 ft | 463 kts | 25° |
| 2026-04-26 22:20 | 26.20173 | 47.64056 | 28961 ft | 463 kts | 25° |
| 2026-04-26 22:21 | 26.25266 | 47.68437 | 28964 ft | 474 kts | 44° |
| 2026-04-26 22:21 | 26.27282 | 47.71360 | 28962 ft | 478 kts | 56° |
| 2026-04-26 22:21 | 26.28805 | 47.74661 | 28953 ft | 480 kts | 67° |
| 2026-04-26 22:22 | 26.30526 | 47.81854 | 28960 ft | 481 kts | 77° |
| 2026-04-26 22:22 | 26.32018 | 47.89131 | 28928 ft | 483 kts | 77° |
| 2026-04-26 22:23 | 26.33508 | 47.96434 | 28923 ft | 484 kts | 77° |
| 2026-04-26 22:23 | 26.34988 | 48.03761 | 28936 ft | 485 kts | 77° |
| 2026-04-26 22:24 | 26.36471 | 48.11108 | 28930 ft | 486 kts | 77° |
| 2026-04-26 22:24 | 26.37962 | 48.18462 | 28929 ft | 486 kts | 77° |
| 2026-04-26 22:25 | 26.39447 | 48.25830 | 28929 ft | 487 kts | 77° |
| 2026-04-26 22:25 | 26.40944 | 48.33268 | 28754 ft | 501 kts | 77° |
| 2026-04-26 22:26 | 26.41712 | 48.37081 | 27952 ft | 504 kts | 77° |
| 2026-04-26 22:26 | 26.42477 | 48.40890 | 27272 ft | 502 kts | 77° |
| 2026-04-26 22:26 | 26.43234 | 48.44677 | 26685 ft | 498 kts | 77° |
| 2026-04-26 22:26 | 26.43983 | 48.48439 | 26092 ft | 494 kts | 77° |
| 2026-04-26 22:27 | 26.44721 | 48.52155 | 25526 ft | 489 kts | 77° |
| 2026-04-26 22:27 | 26.45453 | 48.55850 | 24984 ft | 485 kts | 77° |
| 2026-04-26 22:27 | 26.46180 | 48.59514 | 24445 ft | 481 kts | 77° |
| 2026-04-26 22:27 | 26.46897 | 48.63136 | 23925 ft | 477 kts | 78° |
| 2026-04-26 22:28 | 26.47297 | 48.66794 | 23384 ft | 473 kts | 89° |
| 2026-04-26 22:28 | 26.47116 | 48.70422 | 22569 ft | 462 kts | 99° |
| 2026-04-26 22:28 | 26.46721 | 48.73906 | 21611 ft | 455 kts | 99° |
| 2026-04-26 22:28 | 26.46314 | 48.77406 | 20830 ft | 443 kts | 99° |
| 2026-04-26 22:29 | 26.45925 | 48.80725 | 20526 ft | 421 kts | 99° |
| 2026-04-26 22:29 | 26.45551 | 48.83902 | 20044 ft | 406 kts | 99° |
| 2026-04-26 22:29 | 26.45195 | 48.86935 | 19570 ft | 393 kts | 98° |
| 2026-04-26 22:29 | 26.44845 | 48.89912 | 19111 ft | 381 kts | 98° |
| 2026-04-26 22:30 | 26.44506 | 48.92809 | 18652 ft | 371 kts | 98° |
| 2026-04-26 22:30 | 26.44175 | 48.95657 | 18214 ft | 369 kts | 98° |
| 2026-04-26 22:30 | 26.43849 | 48.98483 | 17728 ft | 365 kts | 98° |
| 2026-04-26 22:30 | 26.43522 | 49.01286 | 17301 ft | 363 kts | 98° |
| 2026-04-26 22:31 | 26.43194 | 49.04067 | 16869 ft | 360 kts | 98° |
| 2026-04-26 22:31 | 26.42869 | 49.06831 | 16447 ft | 357 kts | 98° |
| 2026-04-26 22:31 | 26.42548 | 49.09574 | 16017 ft | 355 kts | 98° |
| 2026-04-26 22:31 | 26.42226 | 49.12297 | 15598 ft | 353 kts | 98° |
| 2026-04-26 22:32 | 26.41907 | 49.14998 | 15185 ft | 350 kts | 98° |
| 2026-04-26 22:32 | 26.41588 | 49.17684 | 14759 ft | 348 kts | 98° |
| 2026-04-26 22:32 | 26.41269 | 49.20350 | 14343 ft | 345 kts | 98° |
| 2026-04-26 22:32 | 26.40953 | 49.22996 | 13929 ft | 343 kts | 98° |
| 2026-04-26 22:33 | 26.40639 | 49.25623 | 13487 ft | 340 kts | 98° |
| 2026-04-26 22:33 | 26.40022 | 49.30816 | 12630 ft | 335 kts | 98° |
| 2026-04-26 22:33 | 26.39720 | 49.33378 | 12209 ft | 331 kts | 98° |
| 2026-04-26 22:34 | 26.39421 | 49.35915 | 11804 ft | 328 kts | 98° |
| 2026-04-26 22:34 | 26.39125 | 49.38431 | 11457 ft | 326 kts | 98° |
| 2026-04-26 22:34 | 26.38832 | 49.40896 | 11078 ft | 321 kts | 98° |
| 2026-04-26 22:34 | 26.38543 | 49.43316 | 10673 ft | 311 kts | 98° |
| 2026-04-26 22:35 | 26.38254 | 49.45716 | 10265 ft | 306 kts | 98° |
| 2026-04-26 22:35 | 26.37967 | 49.48058 | 10179 ft | 306 kts | 99° |
| 2026-04-26 22:35 | 26.37677 | 49.50409 | 10050 ft | 305 kts | 99° |
| 2026-04-26 22:35 | 26.37392 | 49.52724 | 9750 ft | 306 kts | 98° |
| 2026-04-26 22:36 | 26.37004 | 49.55029 | 9190 ft | 300 kts | 108° |
| 2026-04-26 22:36 | 26.36175 | 49.57143 | 8622 ft | 294 kts | 123° |
| 2026-04-26 22:36 | 26.34990 | 49.58969 | 8017 ft | 290 kts | 130° |
| 2026-04-26 22:36 | 26.33754 | 49.60746 | 7370 ft | 289 kts | 130° |
| 2026-04-26 22:37 | 26.32497 | 49.62556 | 6400 ft | 301 kts | 130° |
| 2026-04-26 22:37 | 26.31199 | 49.64427 | 5392 ft | 309 kts | 129° |
| 2026-04-26 22:37 | 26.29878 | 49.66337 | 4400 ft | 313 kts | 128° |
| 2026-04-26 22:37 | 26.28545 | 49.68264 | 3527 ft | 312 kts | 128° |
| 2026-04-26 22:38 | 26.27265 | 49.70119 | 3190 ft | 291 kts | 128° |
| 2026-04-26 22:38 | 26.26085 | 49.71829 | 3057 ft | 265 kts | 127° |
| 2026-04-26 22:38 | 26.25248 | 49.73538 | 3004 ft | 239 kts | 107° |
| 2026-04-26 22:38 | 26.24995 | 49.75271 | 3010 ft | 221 kts | 89° |
| 2026-04-26 22:39 | 26.25228 | 49.76925 | 3034 ft | 212 kts | 73° |
| 2026-04-26 22:39 | 26.25630 | 49.78490 | 3016 ft | 208 kts | 74° |
| 2026-04-26 22:39 | 26.26017 | 49.80030 | 3005 ft | 200 kts | 74° |
| 2026-04-26 22:39 | 26.26374 | 49.81458 | 3007 ft | 187 kts | 74° |
| 2026-04-26 22:40 | 26.26731 | 49.82826 | 3006 ft | 182 kts | 68° |
| 2026-04-26 22:40 | 26.27480 | 49.83899 | 3009 ft | 178 kts | 32° |
| 2026-04-26 22:40 | 26.28647 | 49.84297 | 3009 ft | 174 kts | 358° |
| 2026-04-26 22:40 | 26.29809 | 49.84026 | 3008 ft | 173 kts | 343° |
| 2026-04-26 22:41 | 26.30958 | 49.83665 | 3042 ft | 171 kts | 343° |
| 2026-04-26 22:41 | 26.32100 | 49.83310 | 3019 ft | 170 kts | 343° |
| 2026-04-26 22:41 | 26.33245 | 49.82956 | 3010 ft | 171 kts | 343° |
| 2026-04-26 22:41 | 26.34389 | 49.82603 | 3007 ft | 171 kts | 343° |
| 2026-04-26 22:42 | 26.35535 | 49.82252 | 2930 ft | 171 kts | 343° |
| 2026-04-26 22:42 | 26.36681 | 49.81901 | 2605 ft | 170 kts | 343° |
| 2026-04-26 22:42 | 26.37820 | 49.81549 | 2172 ft | 170 kts | 345° |
| 2026-04-26 22:42 | 26.38949 | 49.81215 | 1694 ft | 167 kts | 345° |
| 2026-04-26 22:43 | 26.40055 | 49.80867 | 1263 ft | 162 kts | 344° |
| 2026-04-26 22:43 | 26.41116 | 49.80523 | 962 ft | 157 kts | 344° |
| 2026-04-26 22:43 | 26.42154 | 49.80210 | 726 ft | 152 kts | 346° |
| 2026-04-26 22:43 | 26.43170 | 49.79912 | 511 ft | 150 kts | 345° |
| 2026-04-26 22:44 | 26.44164 | 49.79581 | 351 ft | 148 kts | 344° |
| 2026-04-26 22:44 | 26.45144 | 49.79282 | 171 ft | 147 kts | 345° |
| 2026-04-26 22:44 | 26.46094 | 49.78992 | 91 ft | 130 kts | 344° |
| 2026-04-26 22:44 | 26.46875 | 49.78763 | 89 ft | 96 kts | 345° |
| 2026-04-26 22:45 | 26.47249 | 49.78641 | 88 ft | 44 kts | 341° |
| 2026-04-26 22:45 | 26.47516 | 49.78559 | 89 ft | 37 kts | 351° |
| 2026-04-26 22:45 | 26.47740 | 49.78582 | 90 ft | 30 kts | 14° |
| 2026-04-26 22:45 | 26.47901 | 49.78627 | 85 ft | 15 kts | 13° |
| 2026-04-26 22:46 | 26.47927 | 49.78634 | 89 ft | 7 kts | 16° |
| 2026-04-26 22:46 | 26.47961 | 49.78656 | 88 ft | 0 kts | 40° |
| 2026-04-26 22:46 | 26.47964 | 49.78659 | 89 ft | 5 kts | 42° |
| 2026-04-26 22:46 | 26.48024 | 49.78715 | 86 ft | 14 kts | 4° |
| 2026-04-26 22:47 | 26.48147 | 49.78682 | 87 ft | 21 kts | 344° |
| 2026-04-26 22:47 | 26.48302 | 49.78634 | 86 ft | 24 kts | 344° |
| 2026-04-26 22:47 | 26.48415 | 49.78599 | 88 ft | 12 kts | 346° |
| 2026-04-26 22:47 | 26.48471 | 49.78597 | 88 ft | 7 kts | 355° |
| 2026-04-26 22:48 | 26.48525 | 49.78579 | 89 ft | 8 kts | 311° |
| 2026-04-26 22:48 | 26.48557 | 49.78557 | 86 ft | 0 kts | 341° |
| 2026-04-26 22:49 | 26.48558 | 49.78557 | 86 ft | 1 kts | 345° |
| 2026-04-26 22:50 | 26.48573 | 49.78595 | 86 ft | 10 kts | 86° |
| 2026-04-26 22:50 | 26.48581 | 49.78645 | 87 ft | 6 kts | 74° |
| 2026-04-26 22:50 | 26.48583 | 49.78651 | 90 ft | 0 kts | 74° |
| 2026-04-26 22:50 | 26.48585 | 49.78661 | 89 ft | 0 kts | 73° |